createdAt,value
2018-08-18T00:01:16.430Z,50.87
2018-08-18T00:03:42.368Z,49.73
2018-08-18T00:06:08.412Z,49.12
2018-08-18T00:08:34.343Z,48.28
2018-08-18T00:11:00.271Z,50.51
2018-08-18T00:13:26.218Z,49.17
2018-08-18T00:15:52.157Z,50.80
2018-08-18T00:18:18.089Z,47.70
2018-08-18T00:20:44.043Z,46.76
2018-08-18T00:23:09.975Z,49.64
2018-08-18T00:25:35.911Z,47.62
2018-08-18T00:28:01.849Z,46.85
2018-08-18T00:30:27.792Z,46.33
2018-08-18T00:32:53.731Z,48.98
2018-08-18T00:35:19.670Z,48.11
2018-08-18T00:37:45.632Z,47.75
2018-08-18T00:40:11.603Z,48.42
2018-08-18T00:42:37.568Z,48.73
2018-08-18T00:45:03.540Z,49.61
2018-08-18T00:47:29.508Z,48.08
2018-08-18T00:49:55.448Z,48.74
2018-08-18T00:52:21.391Z,49.02
2018-08-18T00:54:47.328Z,48.62
2018-08-18T00:57:13.287Z,47.72
2018-08-18T00:59:39.264Z,48.05
2018-08-18T01:02:05.263Z,46.84
2018-08-18T01:04:31.383Z,45.79
2018-08-18T01:06:57.363Z,45.37
2018-08-18T01:09:23.293Z,44.92
2018-08-18T01:11:49.339Z,45.88
2018-08-18T01:14:15.337Z,45.82
2018-08-18T01:16:41.176Z,47.57
2018-08-18T01:19:07.142Z,47.17
2018-08-18T01:21:33.178Z,45.95
2018-08-18T01:23:59.071Z,48.97
2018-08-18T01:26:25.012Z,48.17
2018-08-18T01:28:50.960Z,49.09
2018-08-18T01:31:16.922Z,46.23
2018-08-18T01:33:42.884Z,46.11
2018-08-18T01:36:08.855Z,46.13
2018-08-18T01:38:34.839Z,45.79
2018-08-18T01:41:00.771Z,45.37
2018-08-18T01:43:26.724Z,46.19
2018-08-18T01:45:52.658Z,47.41
2018-08-18T01:48:18.599Z,48.39
2018-08-18T01:50:44.559Z,46.29
2018-08-18T01:53:10.505Z,46.90
2018-08-18T01:55:36.468Z,44.71
2018-08-18T01:58:02.423Z,45.27
2018-08-18T02:00:28.744Z,48.42
2018-08-18T02:02:54.726Z,48.88
2018-08-18T02:05:20.664Z,48.17
2018-08-18T02:07:46.616Z,49.83
2018-08-18T02:10:12.562Z,49.78
2018-08-18T02:12:38.525Z,50.78
2018-08-18T02:15:04.461Z,49.52
2018-08-18T02:17:30.396Z,52.22
2018-08-18T02:19:56.367Z,50.81
2018-08-18T02:22:22.330Z,51.54
2018-08-18T02:24:48.288Z,50.05
2018-08-18T02:27:14.239Z,48.88
2018-08-18T02:29:40.173Z,49.98
2018-08-18T02:32:06.148Z,50.98
2018-08-18T02:34:32.094Z,50.30
2018-08-18T02:36:58.072Z,50.96
2018-08-18T02:39:24.041Z,51.11
2018-08-18T02:41:50.009Z,49.60
2018-08-18T02:44:15.952Z,51.60
2018-08-18T02:46:41.912Z,50.62
2018-08-18T02:49:07.887Z,52.14
2018-08-18T02:51:33.817Z,51.86
2018-08-18T02:53:59.766Z,50.61
2018-08-18T02:56:25.711Z,51.30
2018-08-18T02:58:51.708Z,51.91
2018-08-18T03:01:17.662Z,51.23
2018-08-18T03:03:43.613Z,51.58
2018-08-18T03:06:09.572Z,51.36
2018-08-18T03:08:35.499Z,52.08
2018-08-18T03:11:01.451Z,50.90
2018-08-18T03:13:27.399Z,52.39
2018-08-18T03:15:53.361Z,51.16
2018-08-18T03:18:19.347Z,53.30
2018-08-18T03:20:45.306Z,51.86
2018-08-18T03:23:11.265Z,50.62
2018-08-18T03:25:37.193Z,50.34
2018-08-18T03:28:03.127Z,50.47
2018-08-18T03:30:29.089Z,50.07
2018-08-18T03:32:55.044Z,49.76
2018-08-18T03:35:20.996Z,51.38
2018-08-18T03:37:46.929Z,52.73
2018-08-18T03:40:12.901Z,51.80
2018-08-18T03:42:38.854Z,51.19
2018-08-18T03:45:04.825Z,49.44
2018-08-18T03:47:30.766Z,49.22
2018-08-18T03:49:56.721Z,49.27
2018-08-18T03:52:22.684Z,49.79
2018-08-18T03:54:48.603Z,49.45
2018-08-18T03:57:14.535Z,49.13
2018-08-18T03:59:40.482Z,50.53
2018-08-18T04:02:06.449Z,50.44
2018-08-18T04:04:32.364Z,51.85
2018-08-18T04:06:58.291Z,50.30
2018-08-18T04:09:24.737Z,50.89
2018-08-18T04:11:50.533Z,51.95
2018-08-18T04:14:16.482Z,51.75
2018-08-18T04:16:42.426Z,49.49
2018-08-18T04:19:08.360Z,49.42
2018-08-18T04:21:34.409Z,49.78
2018-08-18T04:24:00.361Z,49.89
2018-08-18T04:26:26.331Z,51.08
2018-08-18T04:28:52.269Z,50.60
2018-08-18T04:31:18.220Z,50.13
2018-08-18T04:33:44.185Z,49.35
2018-08-18T04:36:10.144Z,49.15
2018-08-18T04:38:36.088Z,48.50
2018-08-18T04:41:02.067Z,49.85
2018-08-18T04:43:28.013Z,48.55
2018-08-18T04:45:53.969Z,47.62
2018-08-18T04:48:19.917Z,50.58
2018-08-18T04:50:45.857Z,49.89
2018-08-18T04:53:11.815Z,48.90
2018-08-18T04:55:37.768Z,49.64
2018-08-18T04:58:03.709Z,50.44
2018-08-18T05:00:29.683Z,50.51
2018-08-18T05:02:55.609Z,48.71
2018-08-18T05:05:21.607Z,48.45
2018-08-18T05:07:47.580Z,47.99
2018-08-18T05:10:13.527Z,49.55
2018-08-18T05:12:39.469Z,50.15
2018-08-18T05:15:05.415Z,49.29
2018-08-18T05:17:31.357Z,49.11
2018-08-18T05:19:57.303Z,49.69
2018-08-18T05:22:23.295Z,49.49
2018-08-18T05:24:49.244Z,49.50
2018-08-18T05:27:15.182Z,50.06
2018-08-18T05:29:41.136Z,50.32
2018-08-18T05:32:07.083Z,48.35
2018-08-18T05:34:33.045Z,49.40
2018-08-18T05:36:58.988Z,48.95
2018-08-18T05:39:24.912Z,49.58
2018-08-18T05:41:50.834Z,48.29
2018-08-18T05:44:16.822Z,48.20
2018-08-18T05:46:42.781Z,47.63
2018-08-18T05:49:08.712Z,48.68
2018-08-18T05:51:34.660Z,50.39
2018-08-18T05:54:00.687Z,51.96
2018-08-18T05:56:26.633Z,52.55
2018-08-18T05:58:52.575Z,51.59
2018-08-18T06:01:18.523Z,48.66
2018-08-18T06:03:44.473Z,50.12
2018-08-18T06:06:10.516Z,50.59
2018-08-18T06:08:36.468Z,50.79
2018-08-18T06:11:02.427Z,48.15
2018-08-18T06:13:28.395Z,50.66
2018-08-18T06:15:54.393Z,51.80
2018-08-18T06:18:20.335Z,51.06
2018-08-18T06:20:47.334Z,50.09
2018-08-18T06:23:13.302Z,51.11
2018-08-18T06:25:39.268Z,49.80
2018-08-18T06:28:05.207Z,50.62
2018-08-18T06:30:31.159Z,51.69
2018-08-18T06:32:57.109Z,51.13
2018-08-18T06:35:23.057Z,50.81
2018-08-18T06:37:49.056Z,51.31
2018-08-18T06:40:15.018Z,51.02
2018-08-18T06:42:41.000Z,51.35
2018-08-18T06:45:06.947Z,50.99
2018-08-18T06:47:32.912Z,49.14
2018-08-18T06:49:58.940Z,48.17
2018-08-18T06:52:24.886Z,49.84
2018-08-18T06:54:50.887Z,49.70
2018-08-18T06:57:16.806Z,50.37
2018-08-18T06:59:42.771Z,49.96
2018-08-18T07:02:09.729Z,49.38
2018-08-18T07:04:35.717Z,50.09
2018-08-18T07:07:01.652Z,50.07
2018-08-18T07:09:27.608Z,50.52
2018-08-18T07:11:53.571Z,48.88
2018-08-18T07:14:19.543Z,49.37
2018-08-18T07:16:45.499Z,49.15
2018-08-18T07:19:11.441Z,48.26
2018-08-18T07:21:38.864Z,48.34
2018-08-18T07:24:04.905Z,49.03
2018-08-18T07:26:30.853Z,48.59
2018-08-18T07:28:56.942Z,49.45
2018-08-18T07:31:22.783Z,49.11
2018-08-18T07:33:48.767Z,47.63
2018-08-18T07:36:14.729Z,48.10
2018-08-18T07:38:40.689Z,47.74
2018-08-18T07:41:06.639Z,47.71
2018-08-18T07:43:32.588Z,47.38
2018-08-18T07:45:58.616Z,47.06
2018-08-18T07:48:24.632Z,48.33
2018-08-18T07:50:50.565Z,48.69
2018-08-18T07:53:16.758Z,47.74
2018-08-18T07:55:42.585Z,47.39
2018-08-18T07:58:08.612Z,47.10
2018-08-18T08:00:34.549Z,46.72
2018-08-18T08:03:00.603Z,47.09
2018-08-18T08:05:26.577Z,45.47
2018-08-18T08:07:52.535Z,46.27
2018-08-18T08:10:18.484Z,46.04
2018-08-18T08:12:44.530Z,45.02
2018-08-18T08:15:10.392Z,45.34
2018-08-18T08:17:36.375Z,45.30
2018-08-18T08:20:02.322Z,44.46
2018-08-18T08:22:28.281Z,45.48
2018-08-18T08:24:54.257Z,44.84
2018-08-18T08:27:20.306Z,43.42
2018-08-18T08:29:46.260Z,43.06
2018-08-18T08:32:12.371Z,43.09
2018-08-18T08:34:38.345Z,42.79
2018-08-18T08:37:04.312Z,40.70
2018-08-18T08:39:30.285Z,41.17
2018-08-18T08:41:56.228Z,41.87
2018-08-18T08:44:22.192Z,41.68
2018-08-18T08:46:48.140Z,42.32
2018-08-18T08:49:14.244Z,41.95
2018-08-18T08:51:40.191Z,42.23
2018-08-18T08:54:06.189Z,42.37
2018-08-18T08:56:32.136Z,42.79
2018-08-18T08:58:58.156Z,41.52
2018-08-18T09:01:24.078Z,41.43
2018-08-18T09:03:50.073Z,41.04
2018-08-18T09:06:16.032Z,41.04
2018-08-18T09:08:41.987Z,41.48
2018-08-18T09:11:07.920Z,41.89
2018-08-18T09:13:33.892Z,42.13
2018-08-18T09:15:59.865Z,42.17
2018-08-18T09:18:25.829Z,42.46
2018-08-18T09:20:51.780Z,42.64
2018-08-18T09:23:17.723Z,41.81
2018-08-18T09:25:43.672Z,42.23
2018-08-18T09:28:09.627Z,42.45
2018-08-18T09:30:35.576Z,41.90
2018-08-18T09:33:01.566Z,41.10
2018-08-18T09:35:27.500Z,41.35
2018-08-18T09:37:53.480Z,41.11
2018-08-18T09:40:19.412Z,41.65
2018-08-18T09:42:45.369Z,41.50
2018-08-18T09:45:11.328Z,40.59
2018-08-18T09:47:37.284Z,40.60
2018-08-18T09:50:03.220Z,40.44
2018-08-18T09:52:29.160Z,39.65
2018-08-18T09:54:55.138Z,40.82
2018-08-18T09:57:21.095Z,40.87
2018-08-18T09:59:47.048Z,41.44
2018-08-18T10:02:12.982Z,40.95
2018-08-18T10:04:38.913Z,39.97
2018-08-18T10:07:04.865Z,40.38
2018-08-18T10:09:30.805Z,39.36
2018-08-18T10:11:56.752Z,39.89
2018-08-18T10:14:22.707Z,40.80
2018-08-18T10:16:48.674Z,40.71
2018-08-18T10:19:14.617Z,40.57
2018-08-18T10:21:40.574Z,41.29
2018-08-18T10:24:06.516Z,41.01
2018-08-18T10:26:32.462Z,40.55
2018-08-18T10:28:58.408Z,40.64
2018-08-18T10:31:24.377Z,40.42
2018-08-18T10:33:50.336Z,41.43
2018-08-18T10:36:16.289Z,41.25
2018-08-18T10:38:42.263Z,41.24
2018-08-18T10:41:09.232Z,41.35
2018-08-18T10:43:35.184Z,40.74
2018-08-18T10:46:01.128Z,40.78
2018-08-18T10:48:27.062Z,40.23
2018-08-18T10:50:53.020Z,40.98
2018-08-18T10:53:18.950Z,40.98
2018-08-18T10:55:44.914Z,41.60
2018-08-18T10:58:10.845Z,41.31
2018-08-18T11:00:36.824Z,41.37
2018-08-18T11:03:02.759Z,41.58
2018-08-18T11:05:28.685Z,41.45
2018-08-18T11:07:54.625Z,41.37
2018-08-18T11:10:20.563Z,41.13
2018-08-18T11:12:46.536Z,41.02
2018-08-18T11:15:12.495Z,41.49
2018-08-18T11:17:38.458Z,40.17
2018-08-18T11:20:04.428Z,39.94
2018-08-18T11:22:30.406Z,39.91
2018-08-18T11:24:56.355Z,39.42
2018-08-18T11:27:22.312Z,39.93
2018-08-18T11:29:48.269Z,41.83
2018-08-18T11:32:14.232Z,40.76
2018-08-18T11:34:40.184Z,40.59
2018-08-18T11:37:06.137Z,39.99
2018-08-18T11:39:32.086Z,39.35
2018-08-18T11:41:58.057Z,39.41
2018-08-18T11:44:24.016Z,39.36
2018-08-18T11:46:49.976Z,41.52
2018-08-18T11:49:15.946Z,42.20
2018-08-18T11:51:41.928Z,41.29
2018-08-18T11:54:07.906Z,41.65
2018-08-18T11:56:33.884Z,41.70
2018-08-18T11:58:59.837Z,41.53
2018-08-18T12:01:25.788Z,41.26
2018-08-18T12:03:51.741Z,40.46
2018-08-18T12:06:17.703Z,41.17
2018-08-18T12:08:43.649Z,40.31
2018-08-18T12:11:09.608Z,40.50
2018-08-18T12:13:35.549Z,40.18
2018-08-18T12:16:01.476Z,40.22
2018-08-18T12:18:27.458Z,40.78
2018-08-18T12:20:53.402Z,40.49
2018-08-18T12:23:19.382Z,40.85
2018-08-18T12:25:45.338Z,40.28
2018-08-18T12:28:11.282Z,40.00
2018-08-18T12:30:37.248Z,40.28
2018-08-18T12:33:03.197Z,40.37
2018-08-18T12:35:29.133Z,41.03
2018-08-18T12:37:55.103Z,40.13
2018-08-18T12:40:21.075Z,39.92
2018-08-18T12:42:47.042Z,39.66
2018-08-18T12:45:12.984Z,39.80
2018-08-18T12:47:38.927Z,39.99
2018-08-18T12:50:05.056Z,40.17
2018-08-18T12:52:30.995Z,39.94
2018-08-18T12:54:56.937Z,40.01
2018-08-18T12:57:22.870Z,39.48
2018-08-18T12:59:48.814Z,39.31
2018-08-18T13:02:14.784Z,39.08
2018-08-18T13:04:40.771Z,39.66
2018-08-18T13:07:06.705Z,39.41
2018-08-18T13:09:32.676Z,40.05
2018-08-18T13:11:58.608Z,40.62
2018-08-18T13:14:24.581Z,40.16
2018-08-18T13:16:50.485Z,40.67
2018-08-18T13:19:16.443Z,39.87
2018-08-18T13:21:42.397Z,38.67
2018-08-18T13:24:08.364Z,39.80
2018-08-18T13:26:34.398Z,39.13
2018-08-18T13:29:00.304Z,38.93
2018-08-18T13:31:26.241Z,39.19
2018-08-18T13:33:52.189Z,38.84
2018-08-18T13:36:18.142Z,39.59
2018-08-18T13:38:44.116Z,39.06
2018-08-18T13:41:10.142Z,39.11
2018-08-18T13:43:36.086Z,38.94
2018-08-18T13:46:02.018Z,39.71
2018-08-18T13:48:27.957Z,39.46
2018-08-18T13:50:53.907Z,38.65
2018-08-18T13:53:19.853Z,38.57
2018-08-18T13:55:45.781Z,38.99
2018-08-18T13:58:11.793Z,39.08
2018-08-18T14:00:37.723Z,38.72
2018-08-18T14:03:03.654Z,38.13
2018-08-18T14:05:30.100Z,39.25
2018-08-18T14:07:56.054Z,39.19
2018-08-18T14:10:22.140Z,38.92
2018-08-18T14:12:48.077Z,40.35
2018-08-18T14:15:14.033Z,39.02
2018-08-18T14:17:39.981Z,38.25
2018-08-18T14:20:05.924Z,38.96
2018-08-18T14:22:31.871Z,38.99
2018-08-18T14:24:57.841Z,39.18
2018-08-18T14:27:23.804Z,38.32
2018-08-18T14:29:49.770Z,38.72
2018-08-18T14:32:15.726Z,38.42
2018-08-18T14:34:41.681Z,39.37
2018-08-18T14:37:07.643Z,39.50
2018-08-18T14:39:33.613Z,39.07
2018-08-18T14:41:59.563Z,39.43
2018-08-18T14:44:25.527Z,39.51
2018-08-18T14:46:51.489Z,39.55
2018-08-18T14:49:17.430Z,39.89
2018-08-18T14:51:43.404Z,39.43
2018-08-18T14:54:09.383Z,38.02
2018-08-18T14:56:35.320Z,38.27
2018-08-18T14:59:01.354Z,38.37
2018-08-18T15:01:27.312Z,37.86
2018-08-18T15:03:53.242Z,38.32
2018-08-18T15:06:19.238Z,39.41
2018-08-18T15:08:45.170Z,38.39
2018-08-18T15:11:11.113Z,37.90
2018-08-18T15:13:37.053Z,38.35
2018-08-18T15:16:03.016Z,38.46
2018-08-18T15:18:28.959Z,38.56
2018-08-18T15:20:54.917Z,37.82
2018-08-18T15:23:20.890Z,38.18
2018-08-18T15:25:46.831Z,38.90
2018-08-18T15:28:13.768Z,37.95
2018-08-18T15:30:39.735Z,38.45
2018-08-18T15:33:05.688Z,38.46
2018-08-18T15:35:31.682Z,38.28
2018-08-18T15:37:57.633Z,38.37
2018-08-18T15:40:23.592Z,38.65
2018-08-18T15:42:49.548Z,38.59
2018-08-18T15:45:15.510Z,38.60
2018-08-18T15:47:41.570Z,38.95
2018-08-18T15:50:07.525Z,38.88
2018-08-18T15:52:33.460Z,38.36
2018-08-18T15:54:59.431Z,39.19
2018-08-18T15:57:25.380Z,39.05
2018-08-18T15:59:51.358Z,38.24
2018-08-18T16:02:17.316Z,38.82
2018-08-18T16:04:43.272Z,38.85
2018-08-18T16:07:09.251Z,38.76
2018-08-18T16:09:35.208Z,38.05
2018-08-18T16:12:01.175Z,38.99
2018-08-18T16:14:27.131Z,38.69
2018-08-18T16:16:53.111Z,38.83
2018-08-18T16:19:19.076Z,38.49
2018-08-18T16:21:45.025Z,38.26
2018-08-18T16:24:11.014Z,38.90
2018-08-18T16:26:36.975Z,38.21
2018-08-18T16:29:02.937Z,38.54
2018-08-18T16:31:28.940Z,38.34
2018-08-18T16:33:54.888Z,38.45
2018-08-18T16:36:20.841Z,38.25
2018-08-18T16:38:46.777Z,38.19
2018-08-18T16:41:12.734Z,38.53
2018-08-18T16:43:38.696Z,38.05
2018-08-18T16:46:04.650Z,38.09
2018-08-18T16:48:30.579Z,37.77
2018-08-18T16:50:56.514Z,38.18
2018-08-18T16:53:22.439Z,38.33
2018-08-18T16:55:48.386Z,38.62
2018-08-18T16:58:14.332Z,38.28
2018-08-18T17:00:40.279Z,38.34
2018-08-18T17:03:06.240Z,38.20
2018-08-18T17:05:32.198Z,38.79
2018-08-18T17:07:58.152Z,38.18
2018-08-18T17:10:24.113Z,37.96
2018-08-18T17:12:50.068Z,38.16
2018-08-18T17:15:16.026Z,37.84
2018-08-18T17:17:41.992Z,39.18
2018-08-18T17:20:07.952Z,38.22
2018-08-18T17:22:33.915Z,38.46
2018-08-18T17:24:59.879Z,37.98
2018-08-18T17:27:25.845Z,38.55
2018-08-18T17:29:51.786Z,38.65
2018-08-18T17:32:17.724Z,38.74
2018-08-18T17:34:43.656Z,38.19
2018-08-18T17:37:09.611Z,38.98
2018-08-18T17:39:35.601Z,39.27
2018-08-18T17:42:01.557Z,38.78
2018-08-18T17:44:27.508Z,38.87
2018-08-18T17:46:53.459Z,38.17
2018-08-18T17:49:19.423Z,37.95
2018-08-18T17:51:45.383Z,38.71
2018-08-18T17:54:11.353Z,39.79
2018-08-18T17:56:37.300Z,39.38
2018-08-18T17:59:03.325Z,39.98
2018-08-18T18:01:29.252Z,39.34
2018-08-18T18:03:55.219Z,39.27
2018-08-18T18:06:21.196Z,39.98
2018-08-18T18:08:47.159Z,40.16
2018-08-18T18:11:13.209Z,39.49
2018-08-18T18:13:39.210Z,39.90
2018-08-18T18:16:05.160Z,39.93
2018-08-18T18:18:31.113Z,39.58
2018-08-18T18:20:57.063Z,39.64
2018-08-18T18:23:23.019Z,40.64
2018-08-18T18:25:48.978Z,40.63
2018-08-18T18:28:14.940Z,40.84
2018-08-18T18:30:40.868Z,40.61
2018-08-18T18:33:06.881Z,40.48
2018-08-18T18:35:32.833Z,41.88
2018-08-18T18:37:58.777Z,41.93
2018-08-18T18:40:24.742Z,41.40
2018-08-18T18:42:50.673Z,42.58
2018-08-18T18:45:16.728Z,42.70
2018-08-18T18:47:42.665Z,42.34
2018-08-18T18:50:08.610Z,42.35
2018-08-18T18:52:34.566Z,42.84
2018-08-18T18:55:00.534Z,42.46
2018-08-18T18:57:26.464Z,43.70
2018-08-18T18:59:52.469Z,42.96
2018-08-18T19:02:18.406Z,43.68
2018-08-18T19:04:44.358Z,43.53
2018-08-18T19:07:10.301Z,43.47
2018-08-18T19:09:36.255Z,43.70
2018-08-18T19:12:02.211Z,44.12
2018-08-18T19:14:28.173Z,43.92
2018-08-18T19:16:54.125Z,44.16
2018-08-18T19:19:20.080Z,43.89
2018-08-18T19:21:46.044Z,44.02
2018-08-18T19:24:11.977Z,44.14
2018-08-18T19:26:37.939Z,43.86
2018-08-18T19:29:04.781Z,44.49
2018-08-18T19:31:30.712Z,44.64
2018-08-18T19:33:56.658Z,44.14
2018-08-18T19:36:22.604Z,44.70
2018-08-18T19:38:48.547Z,43.93
2018-08-18T19:41:14.503Z,43.70
2018-08-18T19:43:40.424Z,43.84
2018-08-18T19:46:06.392Z,43.70
2018-08-18T19:48:32.353Z,44.07
2018-08-18T19:50:58.346Z,44.60
2018-08-18T19:53:24.309Z,43.98
2018-08-18T19:55:50.296Z,43.94
2018-08-18T19:58:16.260Z,44.15
2018-08-18T20:00:42.204Z,44.80
2018-08-18T20:03:08.143Z,45.28
2018-08-18T20:05:34.086Z,45.00
2018-08-18T20:08:00.040Z,45.29
2018-08-18T20:10:26.024Z,44.95
2018-08-18T20:12:51.969Z,45.72
2018-08-18T20:15:17.923Z,45.96
2018-08-18T20:17:43.903Z,45.75
2018-08-18T20:20:09.840Z,44.78
2018-08-18T20:22:35.810Z,44.79
2018-08-18T20:25:01.750Z,45.43
2018-08-18T20:27:27.728Z,44.86
2018-08-18T20:29:53.660Z,45.98
2018-08-18T20:32:19.630Z,45.73
2018-08-18T20:34:45.633Z,46.04
2018-08-18T20:37:11.554Z,46.24
2018-08-18T20:39:37.501Z,45.50
2018-08-18T20:42:03.487Z,45.92
2018-08-18T20:44:29.428Z,46.11
2018-08-18T20:46:55.481Z,46.07
2018-08-18T20:49:21.416Z,46.32
2018-08-18T20:51:47.368Z,46.05
2018-08-18T20:54:13.293Z,46.53
2018-08-18T20:56:39.255Z,46.87
2018-08-18T20:59:05.190Z,46.70
2018-08-18T21:01:31.152Z,46.46
2018-08-18T21:03:57.114Z,46.50
2018-08-18T21:06:23.057Z,46.10
2018-08-18T21:08:49.028Z,46.16
2018-08-18T21:11:14.989Z,46.75
2018-08-18T21:13:40.918Z,45.97
2018-08-18T21:16:06.862Z,46.54
2018-08-18T21:18:32.789Z,45.43
2018-08-18T21:20:58.734Z,45.83
2018-08-18T21:23:24.682Z,45.61
2018-08-18T21:25:50.631Z,45.97
2018-08-18T21:28:16.581Z,45.76
2018-08-18T21:30:42.513Z,45.76
2018-08-18T21:33:08.460Z,46.18
2018-08-18T21:35:34.402Z,46.44
2018-08-18T21:38:00.379Z,47.50
2018-08-18T21:40:26.324Z,46.61
2018-08-18T21:42:52.252Z,45.93
2018-08-18T21:45:18.210Z,45.26
2018-08-18T21:47:44.300Z,46.01
2018-08-18T21:50:10.230Z,47.62
2018-08-18T21:52:36.153Z,47.53
2018-08-18T21:55:02.096Z,47.56
2018-08-18T21:57:28.057Z,45.72
2018-08-18T21:59:54.017Z,47.00
2018-08-18T22:02:19.965Z,46.05
2018-08-18T22:04:46.135Z,46.05
2018-08-18T22:07:12.122Z,47.20
2018-08-18T22:09:38.076Z,47.51
2018-08-18T22:12:04.052Z,47.40
2018-08-18T22:14:30.007Z,47.10
2018-08-18T22:16:55.974Z,47.66
2018-08-18T22:19:21.934Z,48.21
2018-08-18T22:21:47.882Z,48.82
2018-08-18T22:24:13.836Z,48.73
2018-08-18T22:26:39.788Z,48.60
2018-08-18T22:29:05.761Z,48.42
2018-08-18T22:31:31.704Z,48.46
2018-08-18T22:33:57.639Z,48.19
2018-08-18T22:36:23.589Z,48.69
2018-08-18T22:38:49.538Z,48.44
2018-08-18T22:41:15.585Z,48.61
2018-08-18T22:43:41.536Z,49.03
2018-08-18T22:46:07.465Z,49.11
2018-08-18T22:48:33.427Z,48.46
2018-08-18T22:50:59.379Z,49.42
2018-08-18T22:53:25.416Z,48.95
2018-08-18T22:55:51.377Z,49.28
2018-08-18T22:58:17.343Z,48.70
2018-08-18T23:00:43.301Z,48.65
2018-08-18T23:03:09.265Z,49.77
2018-08-18T23:05:35.189Z,48.55
2018-08-18T23:08:01.128Z,48.66
2018-08-18T23:10:27.096Z,48.76
2018-08-18T23:12:53.039Z,49.09
2018-08-18T23:15:19.369Z,48.63
2018-08-18T23:17:45.324Z,49.26
2018-08-18T23:20:11.282Z,48.83
2018-08-18T23:22:37.214Z,48.88
2018-08-18T23:25:03.214Z,49.24
2018-08-18T23:27:29.135Z,48.35
2018-08-18T23:29:55.097Z,48.22
2018-08-18T23:32:21.025Z,49.25
2018-08-18T23:34:46.960Z,49.15
2018-08-18T23:37:12.908Z,48.72
2018-08-18T23:39:38.847Z,47.51
2018-08-18T23:42:04.789Z,48.21
2018-08-18T23:44:30.737Z,48.58
2018-08-18T23:46:56.672Z,48.57
2018-08-18T23:49:22.619Z,49.35
2018-08-18T23:51:48.578Z,48.83
2018-08-18T23:54:14.552Z,49.10
2018-08-18T23:56:40.480Z,48.88
2018-08-18T23:59:06.445Z,48.77
